Flight Track Log - Related Links

Times and Time Zones

All times are in EDT time to prevent confusion due to time zone crossing. See the SWA1707 flight status page for this flight to view local times or setup timezone preferences in your user account.

Time Position Orientation Groundspeed Altitude Reporting Facility
EDT Latitude Longitude Course Direction KTS MPH feet Rate Location/Type
Tue 10:34:58 PM 32.9333 -96.9500 320° Northwest 255 293 5,200  Level Dallas / Fort Worth TRACON
Tue 10:36:55 PM 33.0542 -97.0639 322° Northwest 294 338 11,100 2,576 Climbing Fort Worth Center
Tue 10:37:55 PM 33.0481 -97.1383 264° West 234 269 12,800 2,200 Climbing Fort Worth Center
Tue 10:38:55 PM 33.0169 -97.2500 252° West 293 337 15,500 2,500 Climbing Fort Worth Center
Tue 10:39:00 PM 33.0156 -97.4181 288° West  Level FlightAware Approximate
Tue 10:39:55 PM 33.0253 -97.3467 276° West 334 384 17,800  Level Fort Worth Center
Tue 10:40:55 PM 33.0608 -97.4731 289° West 355 409 20,200 2,250 Climbing Fort Worth Center
Tue 10:41:55 PM 33.0900 -97.5769 289° West 367 422 22,300 2,300 Climbing Fort Worth Center
Tue 10:42:55 PM 33.1272 -97.6961 290° West 381 438 24,800 2,100 Climbing Fort Worth Center
Tue 10:43:55 PM 33.1625 -97.8228 288° West 378 435 26,500 1,650 Climbing Fort Worth Center
Tue 10:44:55 PM 33.1997 -97.9447 290° West 378 435 28,100 1,800 Climbing Fort Worth Center
Tue 10:45:55 PM 33.2264 -98.0392 289° West 384 442 30,100 2,200 Climbing Fort Worth Center
Tue 10:46:55 PM 33.2653 -98.1736 289° West 373 429 32,500 2,050 Climbing Fort Worth Center
Tue 10:47:55 PM 33.2958 -98.2833 288° West 365 420 34,200 1,600 Climbing Fort Worth Center
Tue 10:48:55 PM 33.3264 -98.3956 288° West 360 414 35,700 900 Climbing Fort Worth Center
Tue 10:49:55 PM 33.3589 -98.5028 290° West 354 407 36,000 150 Climbing Fort Worth Center
Tue 10:50:55 PM 33.3892 -98.6100 289° West 354 407 36,000  Level Fort Worth Center
Tue 10:51:55 PM 33.4214 -98.7225 289° West 348 400 36,000  Level Fort Worth Center
Tue 10:52:55 PM 33.4536 -98.8375 289° West 348 400 36,000  Level Fort Worth Center
Tue 10:53:55 PM 33.4856 -98.9503 289° West 348 400 36,000  Level Fort Worth Center
Tue 10:54:55 PM 33.5133 -99.0578 287° West 353 406 36,000  Level Fort Worth Center
Tue 10:55:55 PM 33.5453 -99.1706 289° West 353 406 36,000  Level Fort Worth Center
Tue 10:56:55 PM 33.5769 -99.2833 289° West 353 406 36,000  Level Fort Worth Center
Tue 10:57:55 PM 33.6067 -99.3936 288° West 353 406 36,000  Level Fort Worth Center
Tue 10:58:55 PM 33.6383 -99.5067 289° West 353 406 36,000  Level Fort Worth Center
Tue 10:59:55 PM 33.6697 -99.6172 289° West 353 406 36,000  Level Fort Worth Center
Tue 11:00:55 PM 33.7011 -99.7328 288° West 353 406 36,000  Level Fort Worth Center
Tue 11:01:55 PM 33.7303 -99.8436 288° West 358 412 36,000  Level Fort Worth Center
Tue 11:02:55 PM 33.7614 -99.9619 288° West 363 418 36,000  Level Fort Worth Center
Tue 11:03:55 PM 33.7922 -100.0778 288° West 369 425 36,000  Level Fort Worth Center
Tue 11:04:55 PM 33.8211 -100.1861 288° West 369 425 36,000  Level Fort Worth Center
Tue 11:05:55 PM 33.8519 -100.3022 288° West 369 425 36,000  Level Fort Worth Center
Tue 11:06:55 PM 33.8828 -100.4133 289° West 363 418 36,000  Level Fort Worth Center
Tue 11:07:55 PM 33.9133 -100.5269 288° West 363 418 36,000  Level Fort Worth Center
Tue 11:08:55 PM 33.9439 -100.6406 288° West 363 418 36,000  Level Fort Worth Center
Tue 11:09:55 PM 33.9722 -100.7544 287° West 363 418 36,000  Level Fort Worth Center
Tue 11:10:55 PM 34.0025 -100.8683 288° West 363 418 36,000  Level Fort Worth Center
Tue 11:11:55 PM 34.0350 -100.9700 291° West 355 409 36,000  Level Fort Worth Center
Tue 11:12:55 PM 34.0608 -101.0936 284° West 360 414 36,000  Level Fort Worth Center
Tue 11:13:55 PM 34.0850 -101.1925 286° West 354 407 36,000  Level Fort Worth Center
Tue 11:14:55 PM 34.1167 -101.3144 287° West 354 407 36,000  Level Fort Worth Center
Tue 11:15:55 PM 34.1428 -101.4133 288° West 343 395 36,000  Level Fort Worth Center
Tue 11:16:55 PM 34.1719 -101.5378 286° West 348 400 36,000  Level Fort Worth Center
Tue 11:17:55 PM 34.1981 -101.6344 288° West 342 394 36,000  Level Fort Worth Center
Tue 11:18:55 PM 34.2292 -101.7614 287° West 347 399 36,000  Level Fort Worth Center
Tue 11:21:06 PM 34.2883 -101.9950 287° West 353 406 36,000  Level Albuquerque Center
Tue 11:22:08 PM 34.3164 -102.1089 287° West 353 406 36,000  Level Albuquerque Center
Tue 11:23:09 PM 34.3458 -102.2253 287° West 357 411 36,000  Level Albuquerque Center
Tue 11:24:10 PM 34.3736 -102.3406 286° West 357 411 36,000  Level Albuquerque Center
Tue 11:25:12 PM 34.4014 -102.4533 287° West 353 406 36,000  Level Albuquerque Center
Tue 11:26:13 PM 34.4350 -102.5914 286° West 354 407 36,000 -639 Level Albuquerque Center
Tue 11:27:14 PM 34.4625 -102.7058 286° West 353 406 34,700 -984 Descending Albuquerque Center
Tue 11:28:15 PM 34.4900 -102.8156 287° West 345 397 34,000 -341 Descending Albuquerque Center
Tue 11:29:17 PM 34.5072 -102.9286 281° West 332 382 34,000  Level Albuquerque Center
Tue 11:30:18 PM 34.5203 -103.0458 278° West 344 396 34,000  Level Albuquerque Center
Tue 11:31:19 PM 34.5344 -103.1617 278° West 344 396 34,000  Level Albuquerque Center
Tue 11:32:21 PM 34.5492 -103.2786 279° West 346 398 34,000  Level Albuquerque Center
Tue 11:33:22 PM 34.5631 -103.3950 278° West 346 398 34,000  Level Albuquerque Center
Tue 11:34:23 PM 34.5758 -103.5114 278° West 345 397 34,000  Level Albuquerque Center
Tue 11:35:24 PM 34.5936 -103.6242 281° West 339 390 34,000  Level Albuquerque Center
Tue 11:36:26 PM 34.6208 -103.7353 287° West 340 391 34,000  Level Albuquerque Center
Tue 11:37:27 PM 34.6486 -103.8450 287° West 337 388 34,000  Level Albuquerque Center
Tue 11:38:28 PM 34.6758 -103.9553 287° West 337 388 34,000  Level Albuquerque Center
Tue 11:39:29 PM 34.7022 -104.0650 286° West 336 387 34,000  Level Albuquerque Center
Tue 11:40:31 PM 34.7289 -104.1744 287° West 335 386 34,000  Level Albuquerque Center
Tue 11:41:32 PM 34.7553 -104.2825 287° West 331 381 34,000  Level Albuquerque Center
Tue 11:42:33 PM 34.7806 -104.3900 286° West 328 377 34,000  Level Albuquerque Center
Tue 11:43:34 PM 34.8064 -104.4972 286° West 327 376 34,000  Level Albuquerque Center
Tue 11:44:35 PM 34.8322 -104.6050 286° West 327 376 34,000  Level Albuquerque Center
Tue 11:45:36 PM 34.8456 -104.7172 278° West 330 380 34,000  Level Albuquerque Center
Tue 11:46:38 PM 34.8550 -104.8286 276° West 329 379 34,000  Level Albuquerque Center
Tue 11:47:39 PM 34.8653 -104.9400 276° West 327 376 34,000  Level Albuquerque Center
Tue 11:48:40 PM 34.8756 -105.0519 276° West 328 377 34,000 -787 Level Albuquerque Center
Tue 11:49:41 PM 34.8844 -105.1644 276° West 330 380 32,400 -2,803 Descending Albuquerque Center
Tue 11:50:42 PM 34.8967 -105.2997 276° West 338 389 28,300 -3,344 Descending Albuquerque Center
Tue 11:51:43 PM 34.9078 -105.4206 276° West 351 404 25,600 -1,623 Descending Albuquerque Center
Tue 11:52:44 PM 34.9181 -105.5411 276° West 353 406 25,000 -393 Descending Albuquerque Center
Tue 11:53:45 PM 34.9286 -105.6497 277° West 326 375 24,800 -759 Descending Albuquerque Center
Tue 11:54:11 PM 34.9303 -105.6958 273° West 318 366 23,900 -2,262 Descending Albuquerque Center
Tue 11:54:46 PM 34.9361 -105.7581 277° West 320 368 22,500 -2,200 Descending Albuquerque Center
Tue 11:55:11 PM 34.9386 -105.8000 274° West 314 361 21,700 -2,032 Descending Albuquerque Center
Tue 11:55:48 PM 34.9461 -105.8619 278° West 309 356 20,400 -2,066 Descending Albuquerque Center
Tue 11:56:12 PM 34.9464 -105.9017 271° West 304 350 19,600 -2,066 Descending Albuquerque Center
Tue 11:56:49 PM 34.9533 -105.9617 278° West 311 358 18,300 -1,770 Descending Albuquerque Center
Tue 11:57:13 PM 34.9564 -106.0158 274° West 316 364 17,800 -590 Descending Albuquerque Center
Tue 11:57:50 PM 34.9558 -106.0622 269° West 297 342 17,700 -700 Descending Albuquerque Center
Tue 11:58:13 PM 34.9564 -106.1117 271° West 273 314 17,100 -1,574 Descending Albuquerque Center
Tue 11:58:51 PM 34.9569 -106.1539 271° West 274 315 16,100 -1,672 Descending Albuquerque Center
Tue 11:59:14 PM 34.9578 -106.2022 271° West 265 305 15,400 -1,672 Descending Albuquerque Center
Tue 11:59:52 PM 34.9592 -106.2464 272° West 272 313 14,400 -1,800 Descending Albuquerque Center
Wed 12:00:14 AM 34.9592 -106.2953 270° West 275 316 13,600 -1,770 Descending Albuquerque Center
Wed 12:00:53 AM 34.9603 -106.3394 272° West 274 315 12,600 -1,672 Descending Albuquerque Center
Wed 12:01:15 AM 34.9589 -106.3886 268° West 277 319 11,900 -1,475 Descending Albuquerque Center
Wed 12:01:54 AM 34.9578 -106.4328 268° West 275 316 11,100 -2,066 Descending Albuquerque Center
Wed 12:02:16 AM 34.9558 -106.4803 267° West 269 310 9,800 -1,967 Descending Albuquerque Center
Wed 12:02:55 AM 34.9533 -106.5250 266° West 273 314 9,100 -1,500 Descending Albuquerque Center
Wed 12:03:16 AM 34.9531 -106.5742 270° West 280 322 8,300 -1,082 Descending Albuquerque Center
Wed 12:03:56 AM 34.9431 -106.6175 254° West 275 316 8,000 -492 Descending Albuquerque Center
Wed 12:04:17 AM 34.9314 -106.6575 250° West 236 272 7,800 -689 Descending Albuquerque Center
Wed 12:04:57 AM 34.9431 -106.6803 302° West 229 264 7,300 -1,000 Descending Albuquerque Center
Wed 12:05:17 AM 34.9644 -106.6878 344° North 139 160 6,800 -984 Descending Albuquerque Center
Wed 12:05:58 AM 34.9881 -106.6722 28° Northeast 167 192 6,300 -689 Descending Albuquerque Center
Wed 12:06:18 AM 34.9961 -106.6617 47° Northeast 132 152 6,100 -689 Descending Albuquerque Center
Wed 12:06:59 AM 35.0153 -106.6386 45° Northeast 148 170 5,600 -471 Descending Albuquerque Center
Wed 12:08:00 AM 35.0414 -106.6069 45° Northeast 145 167 5,300 -295 Descending Albuquerque Center

Login

Don't have an account? Register now (free) for customized features, flight alerts, and more!